EDMA

Augsburg Airport

Augsburg, Germany
METAR EDMA 191950Z AUTO 05003KT 9999 // NCD 17/15 Q1024
Observed Flight Rules
Jun-19 @ 19:50 UTC (26 minutes ago) Visual Flight Rules
Wind Visibility Clouds
50° at 3 knots 10,000+ meters
  • Clear skies
Temperatures Readings
Current 17°C / 63°F
Dewpoint 15°C / 59°F
Humidity 88%
Altimeter 30.24" Hg
Pressure 1024 hPa
Elevation 463
METAR EDMA 191950Z AUTO 05003KT 9999 // NCD 17/15 Q1024
Observed Flight Rules
Jun-19 @ 19:50 UTC
(26 minutes ago)
VFR
Wind Visibility
50° at 3 knots 10,000+ meters
Clouds
  • Clear skies
Temperature Dewpoint
17°C / 63°F 15°C / 59°F
Humidity Altimeter Pressure
88% 30.24" Hg 1024 hPa